sensor_id;sensor_type;location;lat;lon;timestamp;P1;durP1;ratioP1;P2;durP2;ratioP2
11681;SDS011;5897;42.640;23.310;2022-08-01T00:00:46;1.58;;;1.48;;
11681;SDS011;5897;42.640;23.310;2022-08-01T00:03:13;2.70;;;1.70;;
11681;SDS011;5897;42.640;23.310;2022-08-01T00:05:41;1.52;;;1.42;;
11681;SDS011;5897;42.640;23.310;2022-08-01T00:08:10;1.65;;;1.55;;
11681;SDS011;5897;42.640;23.310;2022-08-01T00:10:37;1.58;;;1.48;;
11681;SDS011;5897;42.640;23.310;2022-08-01T00:13:03;1.48;;;1.35;;
11681;SDS011;5897;42.640;23.310;2022-08-01T00:15:30;1.80;;;1.50;;
11681;SDS011;5897;42.640;23.310;2022-08-01T00:17:57;2.60;;;1.40;;
11681;SDS011;5897;42.640;23.310;2022-08-01T00:20:24;1.50;;;1.40;;
11681;SDS011;5897;42.640;23.310;2022-08-01T00:22:52;2.78;;;1.55;;
11681;SDS011;5897;42.640;23.310;2022-08-01T00:25:19;3.78;;;1.65;;
11681;SDS011;5897;42.640;23.310;2022-08-01T00:27:46;1.45;;;1.23;;
11681;SDS011;5897;42.640;23.310;2022-08-01T00:30:12;2.28;;;1.30;;
11681;SDS011;5897;42.640;23.310;2022-08-01T00:32:39;2.65;;;1.40;;
11681;SDS011;5897;42.640;23.310;2022-08-01T00:35:06;1.30;;;1.20;;
11681;SDS011;5897;42.640;23.310;2022-08-01T00:37:33;2.47;;;1.40;;
11681;SDS011;5897;42.640;23.310;2022-08-01T00:40:02;2.80;;;1.33;;
11681;SDS011;5897;42.640;23.310;2022-08-01T00:42:29;4.20;;;1.23;;
11681;SDS011;5897;42.640;23.310;2022-08-01T00:44:56;1.40;;;1.30;;
11681;SDS011;5897;42.640;23.310;2022-08-01T00:47:23;1.95;;;1.30;;
11681;SDS011;5897;42.640;23.310;2022-08-01T00:49:50;2.58;;;1.40;;
11681;SDS011;5897;42.640;23.310;2022-08-01T00:52:17;2.15;;;1.33;;
11681;SDS011;5897;42.640;23.310;2022-08-01T00:54:43;1.90;;;1.35;;
11681;SDS011;5897;42.640;23.310;2022-08-01T00:57:13;2.38;;;1.23;;
11681;SDS011;5897;42.640;23.310;2022-08-01T00:59:40;2.15;;;1.50;;
11681;SDS011;5897;42.640;23.310;2022-08-01T01:02:07;2.15;;;1.30;;
11681;SDS011;5897;42.640;23.310;2022-08-01T01:04:34;2.08;;;1.55;;
11681;SDS011;5897;42.640;23.310;2022-08-01T01:07:02;1.92;;;1.45;;
11681;SDS011;5897;42.640;23.310;2022-08-01T01:09:39;1.73;;;1.52;;
11681;SDS011;5897;42.640;23.310;2022-08-01T01:12:15;1.92;;;1.30;;
11681;SDS011;5897;42.640;23.310;2022-08-01T01:14:50;1.85;;;1.27;;
11681;SDS011;5897;42.640;23.310;2022-08-01T01:17:24;2.22;;;1.40;;
11681;SDS011;5897;42.640;23.310;2022-08-01T01:19:56;6.43;;;1.67;;
11681;SDS011;5897;42.640;23.310;2022-08-01T01:22:30;1.45;;;1.30;;
11681;SDS011;5897;42.640;23.310;2022-08-01T01:25:09;1.40;;;1.30;;
11681;SDS011;5897;42.640;23.310;2022-08-01T01:27:55;1.60;;;1.48;;
11681;SDS011;5897;42.640;23.310;2022-08-01T01:30:30;1.42;;;1.33;;
11681;SDS011;5897;42.640;23.310;2022-08-01T01:32:59;3.08;;;1.23;;
11681;SDS011;5897;42.640;23.310;2022-08-01T01:35:30;2.58;;;1.30;;
11681;SDS011;5897;42.640;23.310;2022-08-01T01:38:00;2.65;;;1.25;;
11681;SDS011;5897;42.640;23.310;2022-08-01T01:40:30;1.30;;;1.20;;
11681;SDS011;5897;42.640;23.310;2022-08-01T01:42:59;1.30;;;1.20;;
11681;SDS011;5897;42.640;23.310;2022-08-01T01:45:26;1.67;;;1.25;;
11681;SDS011;5897;42.640;23.310;2022-08-01T01:47:55;2.45;;;1.10;;
11681;SDS011;5897;42.640;23.310;2022-08-01T01:50:24;2.13;;;1.70;;
11681;SDS011;5897;42.640;23.310;2022-08-01T01:52:52;1.50;;;1.40;;
11681;SDS011;5897;42.640;23.310;2022-08-01T01:55:21;1.40;;;1.30;;
11681;SDS011;5897;42.640;23.310;2022-08-01T01:57:50;3.03;;;1.30;;
11681;SDS011;5897;42.640;23.310;2022-08-01T02:00:18;2.40;;;1.23;;
11681;SDS011;5897;42.640;23.310;2022-08-01T02:02:45;1.75;;;1.40;;
11681;SDS011;5897;42.640;23.310;2022-08-01T02:05:15;2.15;;;1.00;;
11681;SDS011;5897;42.640;23.310;2022-08-01T02:07:42;2.75;;;1.40;;
11681;SDS011;5897;42.640;23.310;2022-08-01T02:10:10;2.45;;;1.48;;
11681;SDS011;5897;42.640;23.310;2022-08-01T02:12:39;3.55;;;1.30;;
11681;SDS011;5897;42.640;23.310;2022-08-01T02:15:10;1.67;;;1.40;;
11681;SDS011;5897;42.640;23.310;2022-08-01T02:17:41;2.47;;;1.50;;
11681;SDS011;5897;42.640;23.310;2022-08-01T02:20:11;1.20;;;1.10;;
11681;SDS011;5897;42.640;23.310;2022-08-01T02:22:42;1.40;;;1.30;;
11681;SDS011;5897;42.640;23.310;2022-08-01T02:25:15;1.65;;;1.40;;
11681;SDS011;5897;42.640;23.310;2022-08-01T02:27:48;2.05;;;1.30;;
11681;SDS011;5897;42.640;23.310;2022-08-01T02:30:20;2.17;;;1.40;;
11681;SDS011;5897;42.640;23.310;2022-08-01T02:32:51;1.65;;;1.15;;
11681;SDS011;5897;42.640;23.310;2022-08-01T02:35:20;2.22;;;1.35;;
11681;SDS011;5897;42.640;23.310;2022-08-01T02:37:52;1.70;;;1.52;;
11681;SDS011;5897;42.640;23.310;2022-08-01T02:40:21;3.92;;;1.70;;
11681;SDS011;5897;42.640;23.310;2022-08-01T02:42:49;1.30;;;1.20;;
11681;SDS011;5897;42.640;23.310;2022-08-01T02:45:17;1.70;;;1.40;;
11681;SDS011;5897;42.640;23.310;2022-08-01T02:47:46;6.80;;;1.40;;
11681;SDS011;5897;42.640;23.310;2022-08-01T02:50:15;3.25;;;1.60;;
11681;SDS011;5897;42.640;23.310;2022-08-01T02:52:45;1.60;;;1.50;;
11681;SDS011;5897;42.640;23.310;2022-08-01T02:55:16;2.38;;;1.40;;
11681;SDS011;5897;42.640;23.310;2022-08-01T02:57:45;1.88;;;1.38;;
11681;SDS011;5897;42.640;23.310;2022-08-01T03:00:13;2.22;;;1.60;;
11681;SDS011;5897;42.640;23.310;2022-08-01T03:02:41;2.83;;;1.40;;
11681;SDS011;5897;42.640;23.310;2022-08-01T03:05:10;1.50;;;1.38;;
11681;SDS011;5897;42.640;23.310;2022-08-01T03:07:38;1.92;;;1.50;;
11681;SDS011;5897;42.640;23.310;2022-08-01T03:10:07;1.95;;;1.25;;
11681;SDS011;5897;42.640;23.310;2022-08-01T03:12:37;2.55;;;1.90;;
11681;SDS011;5897;42.640;23.310;2022-08-01T03:15:06;3.30;;;1.65;;
11681;SDS011;5897;42.640;23.310;2022-08-01T03:17:35;2.45;;;1.50;;
11681;SDS011;5897;42.640;23.310;2022-08-01T03:20:04;4.85;;;1.42;;
11681;SDS011;5897;42.640;23.310;2022-08-01T03:22:33;1.73;;;1.50;;
11681;SDS011;5897;42.640;23.310;2022-08-01T03:25:01;3.75;;;1.55;;
11681;SDS011;5897;42.640;23.310;2022-08-01T03:27:31;2.67;;;1.33;;
11681;SDS011;5897;42.640;23.310;2022-08-01T03:30:02;2.45;;;1.52;;
11681;SDS011;5897;42.640;23.310;2022-08-01T03:32:30;4.65;;;1.63;;
11681;SDS011;5897;42.640;23.310;2022-08-01T03:34:57;2.75;;;1.58;;
11681;SDS011;5897;42.640;23.310;2022-08-01T03:37:25;1.40;;;1.27;;
11681;SDS011;5897;42.640;23.310;2022-08-01T03:39:55;1.95;;;1.55;;
11681;SDS011;5897;42.640;23.310;2022-08-01T03:42:26;1.77;;;1.60;;
11681;SDS011;5897;42.640;23.310;2022-08-01T03:44:58;2.90;;;1.73;;
11681;SDS011;5897;42.640;23.310;2022-08-01T03:47:32;2.63;;;1.52;;
11681;SDS011;5897;42.640;23.310;2022-08-01T03:50:00;2.05;;;1.85;;
11681;SDS011;5897;42.640;23.310;2022-08-01T03:52:29;2.38;;;1.73;;
11681;SDS011;5897;42.640;23.310;2022-08-01T03:54:58;2.33;;;1.80;;
11681;SDS011;5897;42.640;23.310;2022-08-01T03:57:28;2.10;;;1.90;;
11681;SDS011;5897;42.640;23.310;2022-08-01T03:59:56;2.30;;;2.10;;
11681;SDS011;5897;42.640;23.310;2022-08-01T04:02:26;2.60;;;1.98;;
11681;SDS011;5897;42.640;23.310;2022-08-01T04:04:54;2.10;;;1.80;;
11681;SDS011;5897;42.640;23.310;2022-08-01T04:07:22;2.92;;;1.85;;
11681;SDS011;5897;42.640;23.310;2022-08-01T04:09:49;1.95;;;1.85;;
11681;SDS011;5897;42.640;23.310;2022-08-01T04:12:17;3.15;;;1.75;;
11681;SDS011;5897;42.640;23.310;2022-08-01T04:14:44;3.30;;;1.70;;
11681;SDS011;5897;42.640;23.310;2022-08-01T04:17:11;2.55;;;1.67;;
11681;SDS011;5897;42.640;23.310;2022-08-01T04:19:39;2.45;;;1.58;;
11681;SDS011;5897;42.640;23.310;2022-08-01T04:22:06;2.13;;;1.80;;
11681;SDS011;5897;42.640;23.310;2022-08-01T04:24:34;1.63;;;1.50;;
11681;SDS011;5897;42.640;23.310;2022-08-01T04:27:04;1.63;;;1.50;;
11681;SDS011;5897;42.640;23.310;2022-08-01T04:29:34;2.38;;;1.98;;
11681;SDS011;5897;42.640;23.310;2022-08-01T04:32:04;3.80;;;1.70;;
11681;SDS011;5897;42.640;23.310;2022-08-01T04:34:34;2.40;;;1.60;;
11681;SDS011;5897;42.640;23.310;2022-08-01T04:37:06;2.75;;;1.77;;
11681;SDS011;5897;42.640;23.310;2022-08-01T04:39:35;3.17;;;1.80;;
11681;SDS011;5897;42.640;23.310;2022-08-01T04:42:06;1.70;;;1.60;;
11681;SDS011;5897;42.640;23.310;2022-08-01T04:44:33;2.42;;;1.70;;
11681;SDS011;5897;42.640;23.310;2022-08-01T04:47:00;1.85;;;1.70;;
11681;SDS011;5897;42.640;23.310;2022-08-01T04:49:29;1.63;;;1.52;;
11681;SDS011;5897;42.640;23.310;2022-08-01T04:51:57;2.40;;;1.60;;
11681;SDS011;5897;42.640;23.310;2022-08-01T04:54:26;2.40;;;1.60;;
11681;SDS011;5897;42.640;23.310;2022-08-01T04:56:54;3.08;;;1.92;;
11681;SDS011;5897;42.640;23.310;2022-08-01T04:59:24;5.47;;;1.92;;
11681;SDS011;5897;42.640;23.310;2022-08-01T05:02:06;3.05;;;1.90;;
11681;SDS011;5897;42.640;23.310;2022-08-01T05:04:34;2.58;;;2.10;;
11681;SDS011;5897;42.640;23.310;2022-08-01T05:07:02;2.55;;;1.85;;
11681;SDS011;5897;42.640;23.310;2022-08-01T05:09:30;4.93;;;2.60;;
11681;SDS011;5897;42.640;23.310;2022-08-01T05:11:57;3.65;;;2.50;;
11681;SDS011;5897;42.640;23.310;2022-08-01T05:14:24;4.47;;;1.90;;
11681;SDS011;5897;42.640;23.310;2022-08-01T05:16:51;3.53;;;1.77;;
11681;SDS011;5897;42.640;23.310;2022-08-01T05:19:18;3.95;;;1.80;;
11681;SDS011;5897;42.640;23.310;2022-08-01T05:21:45;2.88;;;1.70;;
11681;SDS011;5897;42.640;23.310;2022-08-01T05:24:12;2.38;;;1.55;;
11681;SDS011;5897;42.640;23.310;2022-08-01T05:26:40;3.03;;;1.65;;
11681;SDS011;5897;42.640;23.310;2022-08-01T05:29:07;2.53;;;1.60;;
11681;SDS011;5897;42.640;23.310;2022-08-01T05:31:34;2.00;;;1.50;;
11681;SDS011;5897;42.640;23.310;2022-08-01T05:34:00;2.00;;;1.63;;
11681;SDS011;5897;42.640;23.310;2022-08-01T05:36:27;1.90;;;1.80;;
11681;SDS011;5897;42.640;23.310;2022-08-01T05:38:54;2.65;;;1.80;;
11681;SDS011;5897;42.640;23.310;2022-08-01T05:41:21;2.05;;;1.65;;
11681;SDS011;5897;42.640;23.310;2022-08-01T05:43:49;3.97;;;1.70;;
11681;SDS011;5897;42.640;23.310;2022-08-01T05:46:16;3.47;;;1.70;;
11681;SDS011;5897;42.640;23.310;2022-08-01T05:48:43;3.00;;;1.60;;
11681;SDS011;5897;42.640;23.310;2022-08-01T05:51:10;4.05;;;1.67;;
11681;SDS011;5897;42.640;23.310;2022-08-01T05:53:36;3.15;;;1.80;;
11681;SDS011;5897;42.640;23.310;2022-08-01T05:56:03;2.65;;;1.70;;
11681;SDS011;5897;42.640;23.310;2022-08-01T05:58:30;2.00;;;1.67;;
11681;SDS011;5897;42.640;23.310;2022-08-01T06:00:59;1.73;;;1.63;;
11681;SDS011;5897;42.640;23.310;2022-08-01T06:03:26;3.28;;;1.85;;
11681;SDS011;5897;42.640;23.310;2022-08-01T06:05:56;3.33;;;1.90;;
11681;SDS011;5897;42.640;23.310;2022-08-01T06:08:23;2.25;;;1.70;;
11681;SDS011;5897;42.640;23.310;2022-08-01T06:10:50;2.38;;;1.50;;
11681;SDS011;5897;42.640;23.310;2022-08-01T06:13:17;5.57;;;2.20;;
11681;SDS011;5897;42.640;23.310;2022-08-01T06:15:44;3.60;;;1.98;;
11681;SDS011;5897;42.640;23.310;2022-08-01T06:18:13;1.77;;;1.67;;
11681;SDS011;5897;42.640;23.310;2022-08-01T06:20:41;2.53;;;1.90;;
11681;SDS011;5897;42.640;23.310;2022-08-01T06:23:08;3.00;;;2.13;;
11681;SDS011;5897;42.640;23.310;2022-08-01T06:25:35;1.73;;;1.60;;
11681;SDS011;5897;42.640;23.310;2022-08-01T06:28:02;2.25;;;1.60;;
11681;SDS011;5897;42.640;23.310;2022-08-01T06:30:29;5.03;;;1.85;;
11681;SDS011;5897;42.640;23.310;2022-08-01T06:32:56;4.10;;;2.28;;
11681;SDS011;5897;42.640;23.310;2022-08-01T06:35:26;5.90;;;1.90;;
11681;SDS011;5897;42.640;23.310;2022-08-01T06:37:54;3.80;;;2.05;;
11681;SDS011;5897;42.640;23.310;2022-08-01T06:40:21;2.47;;;2.00;;
11681;SDS011;5897;42.640;23.310;2022-08-01T06:42:48;2.03;;;1.80;;
11681;SDS011;5897;42.640;23.310;2022-08-01T06:45:15;2.35;;;1.70;;
11681;SDS011;5897;42.640;23.310;2022-08-01T06:47:42;1.73;;;1.63;;
11681;SDS011;5897;42.640;23.310;2022-08-01T06:50:10;2.15;;;1.83;;
11681;SDS011;5897;42.640;23.310;2022-08-01T06:52:40;2.53;;;2.17;;
11681;SDS011;5897;42.640;23.310;2022-08-01T06:55:07;3.55;;;1.98;;
11681;SDS011;5897;42.640;23.310;2022-08-01T06:57:35;2.40;;;1.60;;
11681;SDS011;5897;42.640;23.310;2022-08-01T07:00:03;2.00;;;1.80;;
11681;SDS011;5897;42.640;23.310;2022-08-01T07:02:33;3.60;;;1.77;;
11681;SDS011;5897;42.640;23.310;2022-08-01T07:05:01;3.42;;;2.05;;
11681;SDS011;5897;42.640;23.310;2022-08-01T07:07:29;4.68;;;1.75;;
11681;SDS011;5897;42.640;23.310;2022-08-01T07:09:57;3.33;;;1.98;;
11681;SDS011;5897;42.640;23.310;2022-08-01T07:12:23;2.17;;;1.80;;
11681;SDS011;5897;42.640;23.310;2022-08-01T07:14:50;2.15;;;1.95;;
11681;SDS011;5897;42.640;23.310;2022-08-01T07:17:17;4.78;;;1.75;;
11681;SDS011;5897;42.640;23.310;2022-08-01T07:19:45;3.20;;;2.10;;
11681;SDS011;5897;42.640;23.310;2022-08-01T07:22:12;2.10;;;1.85;;
11681;SDS011;5897;42.640;23.310;2022-08-01T07:24:39;2.63;;;1.88;;
11681;SDS011;5897;42.640;23.310;2022-08-01T07:27:08;2.50;;;2.30;;
11681;SDS011;5897;42.640;23.310;2022-08-01T07:29:35;3.17;;;2.08;;
11681;SDS011;5897;42.640;23.310;2022-08-01T07:32:01;2.63;;;1.80;;
11681;SDS011;5897;42.640;23.310;2022-08-01T07:34:28;2.28;;;2.08;;
11681;SDS011;5897;42.640;23.310;2022-08-01T07:36:55;4.63;;;1.83;;
11681;SDS011;5897;42.640;23.310;2022-08-01T07:39:22;2.38;;;2.10;;
11681;SDS011;5897;42.640;23.310;2022-08-01T07:41:52;4.20;;;2.28;;
11681;SDS011;5897;42.640;23.310;2022-08-01T07:44:20;2.25;;;1.98;;
11681;SDS011;5897;42.640;23.310;2022-08-01T07:46:46;2.30;;;2.10;;
11681;SDS011;5897;42.640;23.310;2022-08-01T07:49:13;2.70;;;1.88;;
11681;SDS011;5897;42.640;23.310;2022-08-01T07:51:40;2.20;;;1.92;;
11681;SDS011;5897;42.640;23.310;2022-08-01T07:54:07;2.47;;;1.75;;
11681;SDS011;5897;42.640;23.310;2022-08-01T07:56:33;3.78;;;1.90;;
11681;SDS011;5897;42.640;23.310;2022-08-01T07:59:00;3.63;;;1.60;;
11681;SDS011;5897;42.640;23.310;2022-08-01T08:01:28;2.22;;;1.80;;
11681;SDS011;5897;42.640;23.310;2022-08-01T08:03:55;2.22;;;1.80;;
11681;SDS011;5897;42.640;23.310;2022-08-01T08:06:22;2.80;;;1.90;;
11681;SDS011;5897;42.640;23.310;2022-08-01T08:08:48;2.35;;;2.08;;
11681;SDS011;5897;42.640;23.310;2022-08-01T08:11:15;2.90;;;1.73;;
11681;SDS011;5897;42.640;23.310;2022-08-01T08:13:42;4.82;;;1.92;;
11681;SDS011;5897;42.640;23.310;2022-08-01T08:16:09;7.43;;;2.22;;
11681;SDS011;5897;42.640;23.310;2022-08-01T08:18:37;2.35;;;1.80;;
11681;SDS011;5897;42.640;23.310;2022-08-01T08:21:04;2.70;;;1.73;;
11681;SDS011;5897;42.640;23.310;2022-08-01T08:23:30;4.28;;;1.80;;
11681;SDS011;5897;42.640;23.310;2022-08-01T08:26:14;2.17;;;1.95;;
11681;SDS011;5897;42.640;23.310;2022-08-01T08:28:41;2.47;;;1.88;;
11681;SDS011;5897;42.640;23.310;2022-08-01T08:31:08;1.98;;;1.77;;
11681;SDS011;5897;42.640;23.310;2022-08-01T08:33:36;3.67;;;1.77;;
11681;SDS011;5897;42.640;23.310;2022-08-01T08:36:03;2.58;;;2.00;;
11681;SDS011;5897;42.640;23.310;2022-08-01T08:38:30;3.75;;;1.90;;
11681;SDS011;5897;42.640;23.310;2022-08-01T08:40:57;2.10;;;1.90;;
11681;SDS011;5897;42.640;23.310;2022-08-01T08:43:24;2.35;;;2.13;;
11681;SDS011;5897;42.640;23.310;2022-08-01T08:45:51;2.45;;;1.60;;
11681;SDS011;5897;42.640;23.310;2022-08-01T08:48:18;2.45;;;2.00;;
11681;SDS011;5897;42.640;23.310;2022-08-01T08:50:46;3.20;;;2.00;;
11681;SDS011;5897;42.640;23.310;2022-08-01T08:53:14;3.92;;;1.85;;
11681;SDS011;5897;42.640;23.310;2022-08-01T08:55:42;3.05;;;2.05;;
11681;SDS011;5897;42.640;23.310;2022-08-01T08:58:10;2.63;;;1.88;;
11681;SDS011;5897;42.640;23.310;2022-08-01T09:00:39;2.85;;;1.70;;
11681;SDS011;5897;42.640;23.310;2022-08-01T09:03:06;2.70;;;1.70;;
11681;SDS011;5897;42.640;23.310;2022-08-01T09:05:33;5.80;;;1.70;;
11681;SDS011;5897;42.640;23.310;2022-08-01T09:08:01;2.92;;;1.90;;
11681;SDS011;5897;42.640;23.310;2022-08-01T09:10:28;2.60;;;1.63;;
11681;SDS011;5897;42.640;23.310;2022-08-01T09:13:05;4.10;;;1.80;;
11681;SDS011;5897;42.640;23.310;2022-08-01T09:15:39;2.17;;;1.88;;
11681;SDS011;5897;42.640;23.310;2022-08-01T09:18:08;4.68;;;1.60;;
11681;SDS011;5897;42.640;23.310;2022-08-01T09:20:35;2.72;;;1.67;;
11681;SDS011;5897;42.640;23.310;2022-08-01T09:23:03;3.10;;;1.73;;
11681;SDS011;5897;42.640;23.310;2022-08-01T09:25:30;2.42;;;1.80;;
11681;SDS011;5897;42.640;23.310;2022-08-01T09:28:02;3.40;;;2.00;;
11681;SDS011;5897;42.640;23.310;2022-08-01T09:30:36;2.42;;;1.70;;
11681;SDS011;5897;42.640;23.310;2022-08-01T09:33:04;1.88;;;1.77;;
11681;SDS011;5897;42.640;23.310;2022-08-01T09:35:32;2.15;;;1.63;;
11681;SDS011;5897;42.640;23.310;2022-08-01T09:38:14;2.85;;;1.77;;
11681;SDS011;5897;42.640;23.310;2022-08-01T09:40:46;2.35;;;1.70;;
11681;SDS011;5897;42.640;23.310;2022-08-01T09:43:14;3.60;;;1.77;;
11681;SDS011;5897;42.640;23.310;2022-08-01T09:45:41;1.85;;;1.63;;
11681;SDS011;5897;42.640;23.310;2022-08-01T09:48:09;3.00;;;1.95;;
11681;SDS011;5897;42.640;23.310;2022-08-01T09:50:40;3.90;;;1.77;;
11681;SDS011;5897;42.640;23.310;2022-08-01T09:53:07;3.08;;;1.70;;
11681;SDS011;5897;42.640;23.310;2022-08-01T09:55:36;3.30;;;1.80;;
11681;SDS011;5897;42.640;23.310;2022-08-01T09:58:03;2.05;;;1.88;;
11681;SDS011;5897;42.640;23.310;2022-08-01T10:00:30;3.25;;;1.95;;
11681;SDS011;5897;42.640;23.310;2022-08-01T10:02:58;2.92;;;1.70;;
11681;SDS011;5897;42.640;23.310;2022-08-01T10:05:31;2.05;;;1.85;;
11681;SDS011;5897;42.640;23.310;2022-08-01T10:08:00;1.95;;;1.77;;
11681;SDS011;5897;42.640;23.310;2022-08-01T10:10:28;3.22;;;1.60;;
11681;SDS011;5897;42.640;23.310;2022-08-01T10:12:56;2.38;;;1.60;;
11681;SDS011;5897;42.640;23.310;2022-08-01T10:15:25;2.78;;;1.88;;
11681;SDS011;5897;42.640;23.310;2022-08-01T10:17:54;2.92;;;1.98;;
11681;SDS011;5897;42.640;23.310;2022-08-01T10:20:22;4.47;;;2.13;;
11681;SDS011;5897;42.640;23.310;2022-08-01T10:22:52;5.45;;;1.80;;
11681;SDS011;5897;42.640;23.310;2022-08-01T10:25:21;1.85;;;1.60;;
11681;SDS011;5897;42.640;23.310;2022-08-01T10:27:48;2.15;;;1.80;;
11681;SDS011;5897;42.640;23.310;2022-08-01T10:30:21;1.85;;;1.75;;
11681;SDS011;5897;42.640;23.310;2022-08-01T10:32:48;5.05;;;1.83;;
11681;SDS011;5897;42.640;23.310;2022-08-01T10:35:17;3.50;;;1.80;;
11681;SDS011;5897;42.640;23.310;2022-08-01T10:37:44;2.45;;;1.50;;
11681;SDS011;5897;42.640;23.310;2022-08-01T10:40:12;2.15;;;1.55;;
11681;SDS011;5897;42.640;23.310;2022-08-01T10:42:39;2.28;;;1.55;;
11681;SDS011;5897;42.640;23.310;2022-08-01T10:45:08;2.90;;;1.60;;
11681;SDS011;5897;42.640;23.310;2022-08-01T10:47:40;3.15;;;1.73;;
11681;SDS011;5897;42.640;23.310;2022-08-01T10:50:13;3.17;;;1.60;;
11681;SDS011;5897;42.640;23.310;2022-08-01T10:53:04;3.45;;;1.42;;
11681;SDS011;5897;42.640;23.310;2022-08-01T10:55:44;1.63;;;1.52;;
11681;SDS011;5897;42.640;23.310;2022-08-01T10:58:25;2.50;;;1.60;;
11681;SDS011;5897;42.640;23.310;2022-08-01T11:04:06;1.98;;;1.58;;
11681;SDS011;5897;42.640;23.310;2022-08-01T11:09:30;1.85;;;1.48;;
11681;SDS011;5897;42.640;23.310;2022-08-01T11:12:05;1.70;;;1.60;;
11681;SDS011;5897;42.640;23.310;2022-08-01T11:15:15;3.47;;;1.70;;
11681;SDS011;5897;42.640;23.310;2022-08-01T11:17:49;4.38;;;1.70;;
11681;SDS011;5897;42.640;23.310;2022-08-01T11:20:19;1.92;;;1.63;;
11681;SDS011;5897;42.640;23.310;2022-08-01T11:28:43;3.35;;;1.52;;
11681;SDS011;5897;42.640;23.310;2022-08-01T11:31:27;4.43;;;1.50;;
11681;SDS011;5897;42.640;23.310;2022-08-01T11:33:55;3.75;;;1.70;;
11681;SDS011;5897;42.640;23.310;2022-08-01T11:36:24;2.42;;;1.50;;
11681;SDS011;5897;42.640;23.310;2022-08-01T11:41:40;2.03;;;1.30;;
11681;SDS011;5897;42.640;23.310;2022-08-01T11:44:08;1.98;;;1.48;;
11681;SDS011;5897;42.640;23.310;2022-08-01T11:46:50;3.97;;;1.50;;
11681;SDS011;5897;42.640;23.310;2022-08-01T11:49:26;3.42;;;1.58;;
11681;SDS011;5897;42.640;23.310;2022-08-01T11:51:59;2.55;;;1.60;;
11681;SDS011;5897;42.640;23.310;2022-08-01T11:54:28;2.08;;;1.50;;
11681;SDS011;5897;42.640;23.310;2022-08-01T11:56:56;5.07;;;1.70;;
11681;SDS011;5897;42.640;23.310;2022-08-01T11:59:23;2.20;;;1.45;;
11681;SDS011;5897;42.640;23.310;2022-08-01T12:01:50;3.67;;;2.00;;
11681;SDS011;5897;42.640;23.310;2022-08-01T12:04:17;2.00;;;1.75;;
11681;SDS011;5897;42.640;23.310;2022-08-01T12:06:44;3.42;;;1.63;;
11681;SDS011;5897;42.640;23.310;2022-08-01T12:09:16;4.13;;;1.92;;
11681;SDS011;5897;42.640;23.310;2022-08-01T12:11:45;1.77;;;1.67;;
11681;SDS011;5897;42.640;23.310;2022-08-01T12:14:15;2.65;;;1.50;;
11681;SDS011;5897;42.640;23.310;2022-08-01T12:16:53;1.60;;;1.50;;
11681;SDS011;5897;42.640;23.310;2022-08-01T12:19:20;1.85;;;1.63;;
11681;SDS011;5897;42.640;23.310;2022-08-01T12:24:33;2.30;;;1.50;;
11681;SDS011;5897;42.640;23.310;2022-08-01T12:27:00;1.60;;;1.50;;
11681;SDS011;5897;42.640;23.310;2022-08-01T12:29:30;2.50;;;1.65;;
11681;SDS011;5897;42.640;23.310;2022-08-01T12:31:58;2.55;;;1.60;;
11681;SDS011;5897;42.640;23.310;2022-08-01T12:34:28;2.00;;;1.67;;
11681;SDS011;5897;42.640;23.310;2022-08-01T12:36:55;2.00;;;1.70;;
11681;SDS011;5897;42.640;23.310;2022-08-01T12:39:29;5.65;;;1.85;;
11681;SDS011;5897;42.640;23.310;2022-08-01T12:41:59;2.00;;;1.77;;
11681;SDS011;5897;42.640;23.310;2022-08-01T12:44:27;2.65;;;1.88;;
11681;SDS011;5897;42.640;23.310;2022-08-01T12:46:55;2.60;;;1.90;;
11681;SDS011;5897;42.640;23.310;2022-08-01T12:49:23;2.22;;;1.77;;
11681;SDS011;5897;42.640;23.310;2022-08-01T12:51:50;1.70;;;1.60;;
11681;SDS011;5897;42.640;23.310;2022-08-01T12:54:20;3.95;;;1.80;;
11681;SDS011;5897;42.640;23.310;2022-08-01T12:56:49;3.75;;;1.70;;
11681;SDS011;5897;42.640;23.310;2022-08-01T12:59:22;2.13;;;1.85;;
11681;SDS011;5897;42.640;23.310;2022-08-01T13:01:51;2.65;;;1.80;;
11681;SDS011;5897;42.640;23.310;2022-08-01T13:04:19;3.88;;;1.85;;
11681;SDS011;5897;42.640;23.310;2022-08-01T13:06:46;2.00;;;1.80;;
11681;SDS011;5897;42.640;23.310;2022-08-01T13:09:13;2.40;;;1.90;;
11681;SDS011;5897;42.640;23.310;2022-08-01T13:11:40;2.35;;;1.70;;
11681;SDS011;5897;42.640;23.310;2022-08-01T13:14:08;2.22;;;1.70;;
11681;SDS011;5897;42.640;23.310;2022-08-01T13:16:46;2.47;;;1.80;;
11681;SDS011;5897;42.640;23.310;2022-08-01T13:19:15;1.42;;;1.33;;
11681;SDS011;5897;42.640;23.310;2022-08-01T13:21:52;2.10;;;1.50;;
11681;SDS011;5897;42.640;23.310;2022-08-01T13:24:24;1.42;;;1.33;;
11681;SDS011;5897;42.640;23.310;2022-08-01T13:26:53;2.25;;;1.50;;
11681;SDS011;5897;42.640;23.310;2022-08-01T13:29:28;1.75;;;1.65;;
11681;SDS011;5897;42.640;23.310;2022-08-01T13:32:00;3.45;;;1.65;;
11681;SDS011;5897;42.640;23.310;2022-08-01T13:34:38;2.08;;;1.38;;
11681;SDS011;5897;42.640;23.310;2022-08-01T13:37:05;1.92;;;1.55;;
11681;SDS011;5897;42.640;23.310;2022-08-01T13:39:31;2.10;;;1.55;;
11681;SDS011;5897;42.640;23.310;2022-08-01T13:42:06;1.65;;;1.55;;
11681;SDS011;5897;42.640;23.310;2022-08-01T13:44:33;2.30;;;1.60;;
11681;SDS011;5897;42.640;23.310;2022-08-01T13:47:01;3.25;;;1.90;;
11681;SDS011;5897;42.640;23.310;2022-08-01T13:49:28;1.92;;;1.50;;
11681;SDS011;5897;42.640;23.310;2022-08-01T13:51:55;1.58;;;1.48;;
11681;SDS011;5897;42.640;23.310;2022-08-01T13:54:22;1.60;;;1.50;;
11681;SDS011;5897;42.640;23.310;2022-08-01T13:56:49;2.25;;;1.90;;
11681;SDS011;5897;42.640;23.310;2022-08-01T13:59:16;2.42;;;1.70;;
11681;SDS011;5897;42.640;23.310;2022-08-01T14:01:43;2.38;;;1.73;;
11681;SDS011;5897;42.640;23.310;2022-08-01T14:04:11;1.65;;;1.55;;
11681;SDS011;5897;42.640;23.310;2022-08-01T14:06:38;2.75;;;1.75;;
11681;SDS011;5897;42.640;23.310;2022-08-01T14:09:05;5.10;;;1.90;;
11681;SDS011;5897;42.640;23.310;2022-08-01T14:11:32;1.65;;;1.55;;
11681;SDS011;5897;42.640;23.310;2022-08-01T14:13:59;2.95;;;1.70;;
11681;SDS011;5897;42.640;23.310;2022-08-01T14:16:26;1.75;;;1.65;;
11681;SDS011;5897;42.640;23.310;2022-08-01T14:18:53;3.42;;;1.40;;
11681;SDS011;5897;42.640;23.310;2022-08-01T14:21:21;1.80;;;1.70;;
11681;SDS011;5897;42.640;23.310;2022-08-01T14:23:48;3.38;;;1.50;;
11681;SDS011;5897;42.640;23.310;2022-08-01T14:26:14;2.42;;;1.50;;
11681;SDS011;5897;42.640;23.310;2022-08-01T14:28:41;2.63;;;1.90;;
11681;SDS011;5897;42.640;23.310;2022-08-01T14:31:08;2.45;;;1.80;;
11681;SDS011;5897;42.640;23.310;2022-08-01T14:33:35;2.15;;;1.55;;
11681;SDS011;5897;42.640;23.310;2022-08-01T14:36:02;3.67;;;1.67;;
11681;SDS011;5897;42.640;23.310;2022-08-01T14:38:31;1.88;;;1.70;;
11681;SDS011;5897;42.640;23.310;2022-08-01T14:40:57;2.92;;;1.70;;
11681;SDS011;5897;42.640;23.310;2022-08-01T14:43:24;1.45;;;1.35;;
11681;SDS011;5897;42.640;23.310;2022-08-01T14:45:51;3.33;;;1.42;;
11681;SDS011;5897;42.640;23.310;2022-08-01T14:48:19;3.47;;;1.67;;
11681;SDS011;5897;42.640;23.310;2022-08-01T14:50:46;1.67;;;1.58;;
11681;SDS011;5897;42.640;23.310;2022-08-01T14:53:13;1.50;;;1.30;;
11681;SDS011;5897;42.640;23.310;2022-08-01T14:55:41;1.60;;;1.50;;
11681;SDS011;5897;42.640;23.310;2022-08-01T14:58:08;1.60;;;1.50;;
11681;SDS011;5897;42.640;23.310;2022-08-01T15:00:34;1.67;;;1.50;;
11681;SDS011;5897;42.640;23.310;2022-08-01T15:03:01;1.83;;;1.50;;
11681;SDS011;5897;42.640;23.310;2022-08-01T15:05:28;1.58;;;1.45;;
11681;SDS011;5897;42.640;23.310;2022-08-01T15:07:55;1.50;;;1.40;;
11681;SDS011;5897;42.640;23.310;2022-08-01T15:10:22;3.83;;;1.50;;
11681;SDS011;5897;42.640;23.310;2022-08-01T15:12:50;1.65;;;1.30;;
11681;SDS011;5897;42.640;23.310;2022-08-01T15:15:17;2.55;;;1.52;;